首页
METAR-TAF:

METAR-TAF

机场 :

奧本, 苏格兰

纬度: 56-27-49N, 经度: 5-24-00W, 海拔: 7米

当前天气观测

该预报发布于4小时和35分钟前的14:50 UTC
风速20节,风向西转西南
温度 5°C
湿度 81%
气压 1001 hPa
能见度10公里或以上
散云层高于2500英尺
多云层高于3500英尺

METAR: EGEO 181450Z 25020KT 9999 SCT025 BKN035 05/02 Q1001

时间: 19:25 (19:25 UTC)

预报

该预报发布于5小时和27分钟前的13:58 UTC
预报有效从18日的 15点(UTC)到 18日的 17点(UTC)
风速17节,风向西转西南
能见度10公里或以上
散云层高于1800英尺
短暂存在
从 18日的 15点(UTC)到 18日的 17点(UTC)
风速20节,风向西转西南,有时为32节阵风
能見度: 5000
多云层高于1200英尺, 积雨云.
阵雨
几率 40% :
短暂存在
从 18日的 15点(UTC)到 18日的 17点(UTC)
能見度: 3000
大阵雨, 小冰雹或雪球

TAF: EGEO 181358Z 1815/1817 24017KT 9999 SCT018 TEMPO 1815/1817 25020G32KT 5000 SHRA BKN012CB PROB40 TEMPO 1815/1817 3000 +SHRAGS

超过4000个机场的气象观测和天气预报(METAR&TAF报告)。

可查询的气象台以黄色和红色小点在地图上表示。

将鼠标移到小点上方,可查看气象台名称。

然后点击查看天气观测和预报。

如需切换地图:点击带黑十字的绿色按钮放大地图;点击带横线的绿色按钮缩小地图;或者点击绿色箭头查看邻近地区的地图。


METAR-TAF: